createdAt,value
2023-03-29T00:02:30.268Z,1.73
2023-03-29T00:05:01.909Z,2.00
2023-03-29T00:07:30.083Z,1.70
2023-03-29T00:09:58.005Z,1.80
2023-03-29T00:12:25.511Z,1.88
2023-03-29T00:14:52.625Z,1.83
2023-03-29T00:17:19.762Z,1.90
2023-03-29T00:19:47.139Z,2.00
2023-03-29T00:22:14.654Z,1.98
2023-03-29T00:24:41.721Z,2.03
2023-03-29T00:27:09.090Z,1.90
2023-03-29T00:29:36.238Z,1.70
2023-03-29T00:32:03.425Z,1.65
2023-03-29T00:34:30.910Z,1.75
2023-03-29T00:36:58.712Z,1.85
2023-03-29T00:39:27.915Z,1.73
2023-03-29T00:41:56.051Z,1.85
2023-03-29T00:44:58.560Z,1.75
2023-03-29T00:47:29.197Z,2.20
2023-03-29T00:49:57.740Z,2.17
2023-03-29T00:52:30.080Z,2.03
2023-03-29T00:54:58.252Z,2.05
2023-03-29T00:57:27.714Z,1.85
2023-03-29T00:59:56.101Z,2.28
2023-03-29T01:02:25.877Z,1.88
2023-03-29T01:04:59.256Z,2.13
2023-03-29T01:07:31.713Z,1.77
2023-03-29T01:10:06.186Z,1.83
2023-03-29T01:12:36.042Z,2.00
2023-03-29T01:15:05.744Z,1.83
2023-03-29T01:17:33.193Z,1.92
2023-03-29T01:20:07.922Z,1.90
2023-03-29T01:22:41.024Z,1.70
2023-03-29T01:25:15.746Z,1.90
2023-03-29T01:32:56.905Z,1.90
2023-03-29T01:35:45.340Z,1.77
2023-03-29T01:38:18.606Z,1.88
2023-03-29T01:40:45.872Z,1.92
2023-03-29T01:43:13.052Z,1.80
2023-03-29T01:45:48.832Z,1.88
2023-03-29T01:48:22.037Z,1.98
2023-03-29T01:50:54.232Z,2.00
2023-03-29T01:53:27.892Z,1.85
2023-03-29T01:56:00.582Z,2.45
2023-03-29T01:58:31.331Z,1.90
2023-03-29T02:00:59.693Z,2.05
2023-03-29T02:03:30.736Z,2.40
2023-03-29T02:05:58.666Z,2.13
2023-03-29T02:08:28.219Z,2.30
2023-03-29T02:10:57.528Z,1.65
2023-03-29T02:13:24.681Z,2.72
2023-03-29T02:15:51.882Z,2.40
2023-03-29T02:18:19.922Z,2.10
2023-03-29T02:20:48.413Z,2.53
2023-03-29T02:23:34.154Z,2.25
2023-03-29T02:26:01.949Z,2.42
2023-03-29T02:28:30.536Z,2.30
2023-03-29T02:31:02.990Z,2.38
2023-03-29T02:33:39.476Z,2.10
2023-03-29T02:36:18.647Z,2.42
2023-03-29T02:41:13.883Z,2.35
2023-03-29T02:43:41.303Z,2.50
2023-03-29T02:46:08.588Z,2.33
2023-03-29T02:48:36.815Z,2.05
2023-03-29T02:51:06.292Z,2.40
2023-03-29T02:53:36.913Z,2.45
2023-03-29T02:56:04.444Z,2.22
2023-03-29T02:58:31.669Z,2.30
2023-03-29T03:01:00.578Z,2.47
2023-03-29T03:03:29.133Z,2.60
2023-03-29T03:06:01.431Z,2.65
2023-03-29T03:08:29.897Z,2.10
2023-03-29T03:10:57.227Z,2.15
2023-03-29T03:13:25.458Z,2.75
2023-03-29T03:15:54.045Z,2.75
2023-03-29T03:18:21.995Z,2.30
2023-03-29T03:20:55.994Z,2.25
2023-03-29T03:23:23.981Z,2.35
2023-03-29T03:25:52.620Z,2.38
2023-03-29T03:28:20.240Z,2.00
2023-03-29T03:30:47.769Z,2.95
2023-03-29T03:33:18.809Z,2.40
2023-03-29T03:36:06.103Z,2.58
2023-03-29T03:38:36.147Z,2.35
2023-03-29T03:41:04.839Z,2.33
2023-03-29T03:43:34.387Z,2.60
2023-03-29T03:46:02.350Z,2.03
2023-03-29T03:48:30.430Z,2.50
2023-03-29T03:51:07.989Z,2.47
2023-03-29T03:53:35.878Z,2.38
2023-03-29T03:56:16.276Z,2.60
2023-03-29T03:59:15.593Z,2.60
2023-03-29T04:02:05.108Z,2.60
2023-03-29T04:04:32.955Z,2.60
2023-03-29T04:07:18.864Z,2.72
2023-03-29T04:10:11.090Z,2.17
2023-03-29T04:12:38.644Z,2.40
2023-03-29T04:15:07.645Z,2.38
2023-03-29T04:17:35.713Z,2.38
2023-03-29T04:20:18.676Z,2.60
2023-03-29T04:22:46.044Z,2.67
2023-03-29T04:25:13.472Z,2.80
2023-03-29T04:27:58.797Z,2.45
2023-03-29T04:30:46.438Z,2.38
2023-03-29T04:33:19.004Z,2.53
2023-03-29T04:35:51.993Z,2.60
2023-03-29T04:38:22.929Z,2.53
2023-03-29T04:40:51.483Z,2.55
2023-03-29T04:43:24.827Z,2.72
2023-03-29T04:46:02.116Z,2.75
2023-03-29T04:48:52.121Z,2.50
2023-03-29T04:51:28.655Z,2.30
2023-03-29T04:53:56.019Z,2.65
2023-03-29T04:56:23.890Z,2.92
2023-03-29T04:59:14.071Z,2.47
2023-03-29T05:01:41.547Z,2.75
2023-03-29T05:04:12.081Z,2.97
2023-03-29T05:06:45.675Z,2.65
2023-03-29T05:09:12.807Z,2.40
2023-03-29T05:11:45.917Z,2.45
2023-03-29T05:14:13.613Z,2.80
2023-03-29T05:16:42.451Z,2.28
2023-03-29T05:19:09.660Z,2.50
2023-03-29T05:21:39.889Z,2.70
2023-03-29T05:24:09.920Z,2.58
2023-03-29T05:26:53.491Z,3.00
2023-03-29T05:29:21.589Z,2.30
2023-03-29T05:31:54.595Z,2.40
2023-03-29T05:34:22.813Z,2.60
2023-03-29T05:36:54.010Z,2.55
2023-03-29T05:39:21.470Z,2.55
2023-03-29T05:41:48.986Z,2.30
2023-03-29T05:44:31.706Z,2.40
2023-03-29T05:47:08.292Z,2.60
2023-03-29T05:49:35.432Z,2.95
2023-03-29T05:52:09.566Z,2.40
2023-03-29T05:54:38.306Z,2.30
2023-03-29T05:57:06.776Z,2.80
2023-03-29T05:59:33.992Z,2.58
2023-03-29T06:02:03.649Z,3.20
2023-03-29T06:04:33.373Z,2.50
2023-03-29T06:07:21.023Z,2.65
2023-03-29T06:10:09.597Z,3.63
2023-03-29T06:12:38.582Z,2.42
2023-03-29T06:15:06.588Z,2.53
2023-03-29T06:17:54.020Z,2.33
2023-03-29T06:20:21.547Z,3.03
2023-03-29T06:22:53.593Z,3.00
2023-03-29T06:25:20.777Z,2.67
2023-03-29T06:27:50.057Z,2.42
2023-03-29T06:30:19.626Z,2.45
2023-03-29T06:32:50.845Z,2.75
2023-03-29T06:35:28.307Z,3.10
2023-03-29T06:38:04.746Z,3.20
2023-03-29T06:40:45.792Z,3.10
2023-03-29T06:43:14.053Z,3.30
2023-03-29T06:45:47.898Z,3.35
2023-03-29T06:48:25.380Z,3.42
2023-03-29T06:50:54.388Z,3.15
2023-03-29T06:53:24.648Z,3.15
2023-03-29T06:55:56.748Z,3.28
2023-03-29T06:58:40.855Z,3.30
2023-03-29T07:01:34.918Z,3.20
2023-03-29T07:04:17.583Z,3.60
2023-03-29T07:07:07.714Z,3.25
2023-03-29T07:09:36.508Z,3.45
2023-03-29T07:12:24.191Z,3.65
2023-03-29T07:14:52.793Z,3.00
2023-03-29T07:17:19.979Z,3.50
2023-03-29T07:19:48.867Z,3.53
2023-03-29T07:22:54.368Z,4.00
2023-03-29T07:25:22.385Z,3.42
2023-03-29T07:27:50.379Z,3.47
2023-03-29T07:30:22.845Z,3.55
2023-03-29T07:32:51.079Z,3.78
2023-03-29T07:35:27.409Z,3.92
2023-03-29T07:37:55.756Z,3.72
2023-03-29T07:40:24.451Z,3.95
2023-03-29T07:42:58.722Z,3.33
2023-03-29T07:45:29.070Z,3.85
2023-03-29T07:48:00.540Z,3.40
2023-03-29T07:50:35.435Z,3.47
2023-03-29T07:53:04.928Z,3.83
2023-03-29T07:55:33.744Z,4.28
2023-03-29T07:58:10.937Z,3.55
2023-03-29T08:00:38.282Z,3.80
2023-03-29T08:03:28.827Z,3.97
2023-03-29T08:05:56.061Z,4.15
2023-03-29T08:08:23.230Z,3.90
2023-03-29T08:10:54.393Z,3.95
2023-03-29T08:13:33.653Z,4.75
2023-03-29T08:16:19.380Z,4.20
2023-03-29T08:18:53.073Z,4.07
2023-03-29T08:21:22.571Z,4.55
2023-03-29T08:23:51.072Z,4.63
2023-03-29T08:26:25.713Z,4.15
2023-03-29T08:28:53.112Z,4.85
2023-03-29T08:31:22.570Z,4.72
2023-03-29T08:33:49.774Z,4.55
2023-03-29T08:36:32.177Z,4.90
2023-03-29T08:39:05.768Z,4.45
2023-03-29T08:41:39.043Z,4.97
2023-03-29T08:44:14.404Z,4.88
2023-03-29T08:47:12.758Z,4.70
2023-03-29T08:49:44.236Z,5.70
2023-03-29T08:52:17.727Z,5.10
2023-03-29T08:54:46.958Z,4.95
2023-03-29T08:57:31.676Z,5.00
2023-03-29T09:00:06.529Z,5.25
2023-03-29T09:02:39.024Z,5.40
2023-03-29T09:05:14.550Z,4.80
2023-03-29T09:07:53.666Z,6.35
2023-03-29T09:10:22.343Z,5.88
2023-03-29T09:13:01.776Z,6.18
2023-03-29T09:15:33.107Z,5.65
2023-03-29T09:18:30.643Z,5.63
2023-03-29T09:21:04.908Z,4.97
2023-03-29T09:23:46.965Z,5.80
2023-03-29T09:26:42.368Z,5.95
2023-03-29T09:29:31.104Z,5.32
2023-03-29T09:31:59.112Z,5.95
2023-03-29T09:34:32.649Z,5.57
2023-03-29T09:37:10.290Z,4.82
2023-03-29T09:39:40.970Z,5.88
2023-03-29T09:42:14.109Z,5.78
2023-03-29T09:44:46.844Z,5.68
2023-03-29T09:47:19.542Z,6.15
2023-03-29T09:49:50.000Z,6.28
2023-03-29T09:52:18.178Z,5.90
2023-03-29T09:54:53.906Z,5.75
2023-03-29T09:57:41.621Z,6.57
2023-03-29T10:00:10.602Z,6.00
2023-03-29T10:02:50.592Z,6.68
2023-03-29T10:05:17.959Z,6.90
2023-03-29T10:07:47.687Z,6.72
2023-03-29T10:10:20.954Z,6.35
2023-03-29T10:12:54.686Z,6.72
2023-03-29T10:17:58.063Z,7.13
2023-03-29T10:20:25.267Z,7.00
2023-03-29T10:22:56.782Z,7.55
2023-03-29T10:25:28.511Z,7.70
2023-03-29T10:27:57.955Z,7.60
2023-03-29T10:30:26.086Z,6.55
2023-03-29T10:32:56.766Z,6.75
2023-03-29T10:35:33.233Z,6.93
2023-03-29T10:38:03.446Z,7.60
2023-03-29T10:40:34.401Z,7.15
2023-03-29T10:43:02.580Z,7.35
2023-03-29T10:45:31.680Z,7.00
2023-03-29T10:47:59.441Z,7.07
2023-03-29T10:50:33.309Z,7.32
2023-03-29T10:53:01.580Z,6.88
2023-03-29T10:55:33.696Z,7.43
2023-03-29T10:58:03.883Z,7.47
2023-03-29T11:00:31.022Z,7.43
2023-03-29T11:03:22.283Z,6.80
2023-03-29T11:06:14.119Z,6.93
2023-03-29T11:08:53.624Z,7.32
2023-03-29T11:11:51.528Z,7.35
2023-03-29T11:14:26.184Z,7.20
2023-03-29T11:17:02.462Z,7.32
2023-03-29T11:19:42.853Z,7.90
2023-03-29T11:22:44.177Z,7.70
2023-03-29T11:25:14.915Z,7.82
2023-03-29T11:27:45.037Z,7.32
2023-03-29T11:30:25.850Z,8.07
2023-03-29T11:33:17.567Z,8.00
2023-03-29T11:35:44.687Z,8.70
2023-03-29T11:38:25.039Z,8.73
2023-03-29T11:41:11.190Z,8.45
2023-03-29T11:43:42.739Z,8.48
2023-03-29T11:46:14.641Z,8.60
2023-03-29T11:48:44.764Z,8.32
2023-03-29T11:51:32.295Z,9.05
2023-03-29T11:54:04.829Z,9.60
2023-03-29T11:56:35.642Z,8.23
2023-03-29T11:59:08.062Z,9.15
2023-03-29T12:01:37.759Z,9.27
2023-03-29T12:04:09.092Z,9.02
2023-03-29T12:06:47.674Z,9.18
2023-03-29T12:09:17.590Z,9.93
2023-03-29T12:11:49.326Z,10.27
2023-03-29T12:14:30.481Z,10.50
2023-03-29T12:17:02.712Z,9.10
2023-03-29T12:19:31.901Z,9.68
2023-03-29T12:22:00.052Z,9.50
2023-03-29T12:24:29.039Z,10.18
2023-03-29T12:27:24.343Z,11.40
2023-03-29T12:30:09.769Z,10.60
2023-03-29T12:32:42.892Z,11.52
2023-03-29T12:35:45.353Z,10.32
2023-03-29T12:38:31.601Z,11.18
2023-03-29T12:41:19.182Z,9.93
2023-03-29T12:44:05.752Z,10.20
2023-03-29T12:46:42.132Z,9.90
2023-03-29T12:49:13.853Z,9.55
2023-03-29T12:51:42.369Z,10.48
2023-03-29T12:54:14.518Z,11.48
2023-03-29T12:56:54.456Z,10.25
2023-03-29T12:59:27.138Z,10.98
2023-03-29T13:02:14.341Z,11.15
2023-03-29T13:04:44.574Z,11.65
2023-03-29T13:07:23.735Z,10.80
2023-03-29T13:09:52.762Z,9.70
2023-03-29T13:12:35.133Z,11.30
2023-03-29T13:15:04.776Z,10.90
2023-03-29T13:17:39.537Z,10.90
2023-03-29T13:20:33.639Z,10.23
2023-03-29T13:23:17.461Z,10.80
2023-03-29T13:25:52.166Z,11.38
2023-03-29T13:28:33.943Z,11.07
2023-03-29T13:31:17.307Z,11.98
2023-03-29T13:33:44.520Z,11.63
2023-03-29T13:36:17.562Z,11.85
2023-03-29T13:38:46.181Z,11.15
2023-03-29T13:41:41.013Z,10.80
2023-03-29T13:44:23.118Z,10.27
2023-03-29T13:47:02.183Z,10.75
2023-03-29T13:49:31.795Z,11.77
2023-03-29T13:52:12.698Z,9.35
2023-03-29T13:54:47.189Z,11.25
2023-03-29T13:57:19.481Z,10.38
2023-03-29T13:59:52.764Z,11.50
2023-03-29T14:02:32.250Z,10.82
2023-03-29T14:05:00.593Z,11.70
2023-03-29T14:07:28.973Z,11.10
2023-03-29T14:09:58.009Z,11.50
2023-03-29T14:12:25.733Z,11.63
2023-03-29T14:14:58.701Z,12.13
2023-03-29T14:17:27.216Z,13.00
2023-03-29T14:19:57.768Z,11.00
2023-03-29T14:22:25.182Z,11.23
2023-03-29T14:24:53.471Z,10.88
2023-03-29T14:27:22.985Z,11.25
2023-03-29T14:29:51.156Z,11.43
2023-03-29T14:32:19.282Z,11.40
2023-03-29T14:34:50.445Z,10.77
2023-03-29T14:37:26.168Z,10.82
2023-03-29T14:39:53.671Z,10.32
2023-03-29T14:42:22.095Z,10.63
2023-03-29T14:44:50.648Z,11.05
2023-03-29T14:47:23.521Z,10.85
2023-03-29T14:52:18.863Z,10.35
2023-03-29T14:54:47.525Z,10.15
2023-03-29T14:57:18.472Z,10.75
2023-03-29T14:59:54.195Z,10.27
2023-03-29T15:02:24.265Z,9.80
2023-03-29T15:05:04.993Z,9.57
2023-03-29T15:07:36.992Z,10.13
2023-03-29T15:10:06.425Z,9.52
2023-03-29T15:12:34.044Z,9.25
2023-03-29T15:15:02.444Z,8.50
2023-03-29T15:17:43.157Z,8.15
2023-03-29T15:20:28.635Z,9.02
2023-03-29T15:23:09.891Z,8.50
2023-03-29T15:25:50.203Z,8.60
2023-03-29T15:28:34.248Z,7.82
2023-03-29T15:31:11.889Z,6.95
2023-03-29T15:33:40.496Z,7.45
2023-03-29T15:36:09.267Z,7.55
2023-03-29T15:38:43.835Z,6.85
2023-03-29T15:41:12.472Z,6.65
2023-03-29T15:43:39.638Z,6.47
2023-03-29T15:46:07.441Z,6.28
2023-03-29T15:48:34.939Z,7.03
2023-03-29T15:51:05.475Z,5.68
2023-03-29T15:53:33.470Z,5.95
2023-03-29T15:56:02.127Z,6.13
2023-03-29T15:58:33.154Z,6.07
2023-03-29T16:01:13.230Z,5.93
2023-03-29T16:03:41.634Z,5.85
2023-03-29T16:06:12.818Z,5.72
2023-03-29T16:08:41.330Z,5.80
2023-03-29T16:11:09.076Z,5.38
2023-03-29T16:13:36.448Z,5.40
2023-03-29T16:16:03.985Z,5.82
2023-03-29T16:18:31.314Z,5.60
2023-03-29T16:20:59.345Z,5.38
2023-03-29T16:23:26.553Z,5.47
2023-03-29T16:25:53.779Z,5.53
2023-03-29T16:28:21.632Z,5.05
2023-03-29T16:30:48.991Z,5.75
2023-03-29T16:33:16.418Z,5.35
2023-03-29T16:35:43.646Z,5.40
2023-03-29T16:38:10.828Z,5.00
2023-03-29T16:40:38.444Z,4.82
2023-03-29T16:43:05.691Z,4.53
2023-03-29T16:45:32.897Z,4.47
2023-03-29T16:48:00.071Z,4.40
2023-03-29T16:50:27.416Z,4.38
2023-03-29T16:52:54.640Z,4.97
2023-03-29T16:55:21.710Z,4.90
2023-03-29T16:57:50.862Z,4.40
2023-03-29T17:00:19.837Z,4.43
2023-03-29T17:02:49.727Z,4.25
2023-03-29T17:05:17.564Z,4.40
2023-03-29T17:07:45.406Z,4.50
2023-03-29T17:10:12.749Z,4.78
2023-03-29T17:12:40.147Z,4.55
2023-03-29T17:15:07.792Z,4.38
2023-03-29T17:17:35.531Z,4.10
2023-03-29T17:20:02.718Z,4.07
2023-03-29T17:22:29.785Z,4.30
2023-03-29T17:24:57.045Z,4.38
2023-03-29T17:27:24.160Z,3.72
2023-03-29T17:29:51.333Z,4.47
2023-03-29T17:32:18.423Z,4.00
2023-03-29T17:34:46.228Z,4.35
2023-03-29T17:37:13.456Z,4.30
2023-03-29T17:39:41.907Z,3.88
2023-03-29T17:42:08.965Z,4.05
2023-03-29T17:44:36.158Z,4.78
2023-03-29T17:47:03.299Z,4.88
2023-03-29T17:49:30.548Z,4.60
2023-03-29T17:51:57.815Z,4.22
2023-03-29T17:54:24.869Z,4.32
2023-03-29T17:56:52.116Z,4.28
2023-03-29T17:59:19.307Z,4.03
2023-03-29T18:01:46.432Z,4.60
2023-03-29T18:04:13.565Z,4.10
2023-03-29T18:06:40.655Z,4.30
2023-03-29T18:09:07.816Z,4.72
2023-03-29T18:11:36.275Z,4.80
2023-03-29T18:14:04.712Z,4.47
2023-03-29T18:16:31.925Z,4.70
2023-03-29T18:18:59.123Z,4.13
2023-03-29T18:21:27.279Z,4.63
2023-03-29T18:23:56.660Z,4.40
2023-03-29T18:26:25.044Z,4.93
2023-03-29T18:28:52.326Z,4.88
2023-03-29T18:31:19.852Z,5.03
2023-03-29T18:33:47.592Z,6.13
2023-03-29T18:36:15.093Z,6.13
2023-03-29T18:38:43.713Z,6.63
2023-03-29T18:41:12.345Z,5.85
2023-03-29T18:43:39.960Z,6.53
2023-03-29T18:46:08.052Z,6.72
2023-03-29T18:48:38.669Z,5.82
2023-03-29T18:51:07.436Z,5.80
2023-03-29T18:53:35.320Z,6.50
2023-03-29T18:56:03.449Z,6.72
2023-03-29T18:58:30.780Z,6.97
2023-03-29T19:01:03.512Z,6.88
2023-03-29T19:03:31.613Z,7.18
2023-03-29T19:05:58.994Z,6.60
2023-03-29T19:08:26.282Z,7.18
2023-03-29T19:10:54.227Z,7.28
2023-03-29T19:13:21.370Z,6.57
2023-03-29T19:15:48.598Z,6.93
2023-03-29T19:18:15.950Z,7.43
2023-03-29T19:20:43.044Z,7.30
2023-03-29T19:23:10.187Z,8.38
2023-03-29T19:25:37.863Z,7.78
2023-03-29T19:28:05.153Z,7.72
2023-03-29T19:30:32.584Z,7.47
2023-03-29T19:32:59.765Z,7.50
2023-03-29T19:35:27.015Z,7.97
2023-03-29T19:37:54.134Z,7.75
2023-03-29T19:40:21.745Z,8.00
2023-03-29T19:42:48.873Z,8.18
2023-03-29T19:45:16.016Z,7.38
2023-03-29T19:47:47.564Z,8.20
2023-03-29T19:50:15.022Z,8.00
2023-03-29T19:52:42.935Z,8.30
2023-03-29T19:55:10.634Z,7.80
2023-03-29T19:57:37.790Z,7.93
2023-03-29T20:00:07.872Z,7.85
2023-03-29T20:02:39.498Z,7.63
2023-03-29T20:05:08.272Z,7.88
2023-03-29T20:07:35.416Z,7.82
2023-03-29T20:10:02.762Z,7.47
2023-03-29T20:12:29.865Z,7.70
2023-03-29T20:14:56.972Z,7.90
2023-03-29T20:17:24.169Z,8.80
2023-03-29T20:19:51.285Z,6.97
2023-03-29T20:22:19.024Z,6.82
2023-03-29T20:24:46.229Z,6.50
2023-03-29T20:27:13.804Z,6.40
2023-03-29T20:29:41.145Z,6.25
2023-03-29T20:32:09.138Z,6.45
2023-03-29T20:34:36.848Z,6.13
2023-03-29T20:37:03.971Z,5.85
2023-03-29T20:39:31.436Z,5.88
2023-03-29T20:41:59.014Z,6.05
2023-03-29T20:44:28.354Z,6.55
2023-03-29T20:47:03.282Z,6.05
2023-03-29T20:49:37.619Z,6.03
2023-03-29T20:52:12.234Z,5.80
2023-03-29T20:54:39.332Z,6.32
2023-03-29T20:57:07.655Z,6.35
2023-03-29T20:59:35.449Z,6.50
2023-03-29T21:02:02.631Z,6.45
2023-03-29T21:04:30.009Z,5.60
2023-03-29T21:06:59.896Z,6.50
2023-03-29T21:09:30.952Z,6.22
2023-03-29T21:11:58.030Z,5.82
2023-03-29T21:14:26.646Z,5.70
2023-03-29T21:16:53.862Z,5.22
2023-03-29T21:19:21.139Z,5.22
2023-03-29T21:21:52.131Z,5.32
2023-03-29T21:24:19.819Z,5.22
2023-03-29T21:26:46.996Z,4.97
2023-03-29T21:29:14.177Z,5.30
2023-03-29T21:31:41.448Z,5.10
2023-03-29T21:34:08.907Z,5.18
2023-03-29T21:36:36.274Z,4.80
2023-03-29T21:39:03.565Z,5.45
2023-03-29T21:41:30.891Z,4.80
2023-03-29T21:43:57.981Z,4.80
2023-03-29T21:46:25.893Z,4.90
2023-03-29T21:48:53.184Z,4.93
2023-03-29T21:51:20.310Z,4.88
2023-03-29T21:53:47.480Z,4.85
2023-03-29T21:56:14.570Z,4.68
2023-03-29T21:58:41.771Z,4.45
2023-03-29T22:01:10.452Z,4.20
2023-03-29T22:03:38.480Z,4.78
2023-03-29T22:06:10.421Z,4.70
2023-03-29T22:08:40.971Z,4.25
2023-03-29T22:11:09.724Z,4.78
2023-03-29T22:13:37.315Z,4.60
2023-03-29T22:16:05.037Z,4.32
2023-03-29T22:18:42.254Z,4.30
2023-03-29T22:21:13.896Z,4.28
2023-03-29T22:23:42.255Z,4.35
2023-03-29T22:26:11.064Z,4.55
2023-03-29T22:28:38.267Z,4.70
2023-03-29T22:31:06.434Z,4.22
2023-03-29T22:33:34.516Z,4.03
2023-03-29T22:36:02.229Z,4.25
2023-03-29T22:38:29.908Z,3.50
2023-03-29T22:40:56.968Z,4.07
2023-03-29T22:43:24.317Z,3.95
2023-03-29T22:45:51.467Z,3.85
2023-03-29T22:48:18.656Z,3.88
2023-03-29T22:50:48.667Z,3.55
2023-03-29T22:53:16.033Z,3.45
2023-03-29T22:55:45.842Z,3.50
2023-03-29T22:58:12.984Z,3.28
2023-03-29T23:00:40.620Z,3.60
2023-03-29T23:03:07.755Z,3.70
2023-03-29T23:05:35.013Z,4.07
2023-03-29T23:08:02.188Z,3.20
2023-03-29T23:10:30.354Z,3.33
2023-03-29T23:13:10.750Z,3.40
2023-03-29T23:15:38.765Z,3.75
2023-03-29T23:18:06.024Z,3.80
2023-03-29T23:20:33.386Z,3.80
2023-03-29T23:23:00.562Z,3.65
2023-03-29T23:25:28.771Z,3.80
2023-03-29T23:27:55.874Z,3.30
2023-03-29T23:30:23.082Z,3.00
2023-03-29T23:32:52.380Z,3.03
2023-03-29T23:35:19.963Z,3.60
2023-03-29T23:37:47.683Z,3.58
2023-03-29T23:40:15.521Z,3.20
2023-03-29T23:42:43.542Z,3.65
2023-03-29T23:45:15.666Z,3.33
2023-03-29T23:47:44.105Z,3.35
2023-03-29T23:50:13.281Z,3.05
2023-03-29T23:52:41.079Z,3.08
2023-03-29T23:55:09.369Z,3.00
2023-03-29T23:57:37.079Z,3.47
